Time;durP1;ratioP1;P1;durP2;ratioP2;P2;SDS_P1;SDS_P2;PMS_P1;PMS_P2;Temp;Humidity;BMP_temperature;BMP_pressure;BME280_temperature;BME280_humidity;BME280_pressure;Samples;Min_cycle;Max_cycle;Signal;HPM_P1;HPM_P2
2024/01/06 00:05:46;;;;;;;13.95;7.82;;;5.90;99.90;;;;;;20680025;28;20042;-40
2024/01/06 00:15:46;;;;;;;13.07;7.05;;;5.80;99.90;;;;;;20691675;28;20034;-40
2024/01/06 00:25:47;;;;;;;12.83;6.60;;;5.80;99.90;;;;;;20690451;28;20523;-40
2024/01/06 00:35:47;;;;;;;11.32;5.32;;;5.70;99.90;;;;;;20685931;28;20057;-41
2024/01/06 00:45:48;;;;;;;12.25;6.35;;;5.60;99.90;;;;;;20686978;28;20050;-40
2024/01/06 00:55:48;;;;;;;10.37;5.40;;;5.60;99.90;;;;;;20683878;28;20417;-40
2024/01/06 01:05:49;;;;;;;8.27;4.40;;;5.60;99.90;;;;;;20676591;28;20128;-40
2024/01/06 01:15:50;;;;;;;10.82;6.45;;;5.50;99.90;;;;;;20684123;28;20486;-40
2024/01/06 01:25:50;;;;;;;14.65;7.18;;;5.40;99.90;;;;;;20680873;28;20042;-40
2024/01/06 01:35:51;;;;;;;9.10;5.32;;;5.40;99.90;;;;;;20684231;28;20057;-40
2024/01/06 01:45:54;;;;;;;11.88;6.50;;;5.50;99.90;;;;;;20679290;28;20475;-40
2024/01/06 01:55:55;;;;;;;11.60;6.93;;;5.40;99.90;;;;;;20673058;28;20056;-40
2024/01/06 02:05:55;;;;;;;10.88;6.30;;;5.40;99.90;;;;;;20676961;28;20052;-40
2024/01/06 02:15:56;;;;;;;12.63;7.33;;;5.40;99.90;;;;;;20672387;28;20069;-40
2024/01/06 02:25:57;;;;;;;15.00;7.68;;;5.30;99.90;;;;;;20668813;28;20471;-40
2024/01/06 02:35:57;;;;;;;13.85;7.20;;;5.20;99.90;;;;;;20674117;28;20608;-40
2024/01/06 02:45:58;;;;;;;13.70;7.20;;;5.30;99.90;;;;;;20675024;28;20494;-40
2024/01/06 02:56:01;;;;;;;13.60;5.63;;;5.30;99.90;;;;;;20666745;28;20044;-40
2024/01/06 03:06:02;;;;;;;8.93;5.80;;;5.30;99.90;;;;;;20671240;28;20141;-40
2024/01/06 03:16:06;;;;;;;11.93;6.95;;;5.30;99.90;;;;;;20667565;28;20038;-40
2024/01/06 03:26:06;;;;;;;8.55;4.55;;;5.30;99.90;;;;;;20671119;28;20077;-40
2024/01/06 03:36:08;;;;;;;11.93;5.82;;;5.30;92.00;;;;;;20668782;28;20052;-40
2024/01/06 03:46:08;;;;;;;12.13;6.00;;;5.20;97.10;;;;;;20667792;28;20049;-40
2024/01/06 03:56:09;;;;;;;8.23;5.20;;;5.20;96.40;;;;;;20672821;28;20035;-40
2024/01/06 04:06:10;;;;;;;9.55;5.22;;;5.20;84.40;;;;;;20671427;28;20084;-40
2024/01/06 04:16:10;;;;;;;9.10;5.63;;;5.20;85.60;;;;;;20668216;28;20681;-40
2024/01/06 04:26:11;;;;;;;11.73;7.25;;;5.10;97.70;;;;;;20724022;28;20578;-39
2024/01/06 04:36:12;;;;;;;12.23;7.18;;;5.00;99.90;;;;;;20751625;28;20561;-40
2024/01/06 04:46:13;;;;;;;10.20;5.78;;;5.00;99.90;;;;;;20762061;28;20125;-40
2024/01/06 04:56:13;;;;;;;10.77;5.53;;;5.00;99.90;;;;;;20762659;28;20040;-40
2024/01/06 05:06:14;;;;;;;10.18;5.70;;;5.00;99.90;;;;;;20764185;28;20041;-40
2024/01/06 05:16:14;;;;;;;10.45;4.88;;;5.10;99.90;;;;;;20761817;28;20103;-40
2024/01/06 05:26:15;;;;;;;6.18;4.07;;;5.00;99.90;;;;;;20759993;28;20132;-40
2024/01/06 05:36:20;;;;;;;6.43;3.50;;;5.00;99.90;;;;;;20761274;28;20045;-39
2024/01/06 05:46:24;;;;;;;8.05;4.18;;;4.80;99.90;;;;;;20756991;28;20552;-39
2024/01/06 05:56:26;;;;;;;6.35;3.75;;;5.00;95.00;;;;;;20760998;28;20053;-40
2024/01/06 06:06:27;;;;;;;8.85;4.47;;;4.90;88.60;;;;;;20761830;28;20468;-39
2024/01/06 06:16:27;;;;;;;9.05;4.85;;;4.90;88.10;;;;;;20756393;28;20041;-40
2024/01/06 06:26:28;;;;;;;7.03;4.40;;;4.80;95.10;;;;;;20759854;28;20521;-40
2024/01/06 06:36:29;;;;;;;7.50;4.53;;;4.90;89.40;;;;;;20758362;28;20473;-39
2024/01/06 06:46:33;;;;;;;7.68;4.80;;;4.80;92.80;;;;;;20759548;28;21350;-40
2024/01/06 06:56:34;;;;;;;9.93;4.30;;;4.90;77.50;;;;;;20759145;28;20114;-40
2024/01/06 07:06:35;;;;;;;8.18;3.97;;;4.80;73.20;;;;;;20755158;28;20057;-40
2024/01/06 07:16:36;;;;;;;9.93;4.32;;;4.80;83.00;;;;;;20756525;28;20401;-40
2024/01/06 07:26:36;;;;;;;6.93;4.47;;;4.80;94.40;;;;;;20757599;28;20052;-40
2024/01/06 07:36:38;;;;;;;13.87;5.67;;;4.70;99.90;;;;;;20756210;28;20547;-40
2024/01/06 07:46:40;;;;;;;11.23;6.18;;;4.70;99.90;;;;;;20753646;28;20445;-40
2024/01/06 07:56:41;;;;;;;9.82;5.60;;;4.60;99.90;;;;;;20758514;28;20053;-40
2024/01/06 08:06:41;;;;;;;9.15;5.82;;;4.70;99.90;;;;;;20753795;28;20521;-40
2024/01/06 08:16:42;;;;;;;8.40;5.20;;;4.70;99.90;;;;;;20768696;28;20060;-40
2024/01/06 08:26:43;;;;;;;7.78;4.75;;;4.70;99.90;;;;;;20775493;28;20041;-40
2024/01/06 08:36:44;;;;;;;10.05;4.90;;;4.60;99.90;;;;;;20778225;28;20053;-40
2024/01/06 08:46:45;;;;;;;7.93;4.07;;;4.70;99.90;;;;;;20771110;28;20499;-40
2024/01/06 08:56:45;;;;;;;5.82;3.55;;;4.80;99.40;;;;;;20742643;28;20045;-40
2024/01/06 09:06:46;;;;;;;6.97;3.65;;;4.70;94.30;;;;;;20761675;28;20045;-40
2024/01/06 09:16:47;;;;;;;6.43;3.80;;;4.80;85.70;;;;;;20768181;28;20040;-40
2024/01/06 09:26:50;;;;;;;8.32;3.50;;;4.80;80.90;;;;;;20765919;28;20045;-40
2024/01/06 09:36:50;;;;;;;6.30;3.25;;;4.90;67.30;;;;;;20768836;28;20053;-40
2024/01/06 09:46:51;;;;;;;6.18;3.53;;;4.90;41.80;;;;;;20768565;28;20049;-40
2024/01/06 09:56:51;;;;;;;7.65;3.78;;;4.90;28.60;;;;;;20768358;28;20120;-40
2024/01/06 10:06:53;;;;;;;10.13;4.37;;;4.90;30.70;;;;;;20773396;28;20508;-40
2024/01/06 10:16:53;;;;;;;7.32;4.30;;;4.80;25.60;;;;;;20763990;28;20449;-41
2024/01/06 10:26:54;;;;;;;7.13;3.90;;;4.80;35.90;;;;;;20711327;28;20084;-40
2024/01/06 10:36:55;;;;;;;6.22;3.88;;;4.80;24.80;;;;;;20757240;28;20053;-40
2024/01/06 10:46:59;;;;;;;7.05;3.97;;;4.80;23.90;;;;;;20759093;28;20516;-40
2024/01/06 10:57:03;;;;;;;7.68;4.35;;;4.90;20.10;;;;;;20762321;28;20124;-40
2024/01/06 11:07:05;;;;;;;6.85;3.92;;;4.90;24.30;;;;;;20763299;28;20138;-41
2024/01/06 11:17:06;;;;;;;8.77;4.03;;;4.90;19.70;;;;;;20763721;28;20052;-40
2024/01/06 11:27:09;;;;;;;7.07;4.10;;;4.80;18.10;;;;;;20760852;28;20038;-40
2024/01/06 11:37:09;;;;;;;7.35;4.40;;;4.90;20.20;;;;;;20765767;28;20443;-40
2024/01/06 11:47:11;;;;;;;8.60;4.47;;;4.90;17.00;;;;;;20769492;28;20088;-41
2024/01/06 11:57:12;;;;;;;8.57;4.95;;;4.90;15.40;;;;;;20786877;28;20657;-40
2024/01/06 12:07:14;;;;;;;8.23;4.80;;;4.80;15.20;;;;;;20784365;28;20050;-41
2024/01/06 12:17:15;;;;;;;8.88;4.50;;;4.90;16.20;;;;;;20782985;28;20504;-40
2024/01/06 12:27:18;;;;;;;9.00;4.78;;;4.80;13.30;;;;;;20778886;28;20042;-40
2024/01/06 12:37:18;;;;;;;8.27;4.22;;;4.90;15.40;;;;;;20781875;28;20041;-40
2024/01/06 12:47:19;;;;;;;5.90;3.60;;;4.80;12.80;;;;;;20780683;28;20052;-40
2024/01/06 12:57:20;;;;;;;6.65;3.17;;;4.80;12.40;;;;;;20781394;28;20045;-41
2024/01/06 13:07:22;;;;;;;8.70;5.13;;;4.80;12.40;;;;;;20733753;28;20060;-40
2024/01/06 13:17:22;;;;;;;8.35;5.30;;;4.90;13.60;;;;;;20773364;28;20444;-40
2024/01/06 13:27:23;;;;;;;10.93;5.30;;;4.90;12.40;;;;;;20772140;28;20046;-40
2024/01/06 13:37:23;;;;;;;8.05;4.95;;;4.90;18.30;;;;;;20771736;28;20046;-40
2024/01/06 13:47:24;;;;;;;9.68;4.97;;;4.70;23.80;;;;;;20760387;28;20072;-40
2024/01/06 13:57:25;;;;;;;12.68;5.97;;;4.70;33.00;;;;;;20767062;28;20366;-40
2024/01/06 14:07:26;;;;;;;11.30;5.97;;;4.70;36.50;;;;;;20766225;28;20053;-40
2024/01/06 14:17:26;;;;;;;9.75;5.82;;;4.70;47.00;;;;;;20766828;28;20916;-40
2024/01/06 14:27:28;;;;;;;6.38;4.72;;;4.60;51.80;;;;;;20733976;28;20058;-40
2024/01/06 14:37:29;;;;;;;10.85;5.78;;;4.50;62.60;;;;;;20760571;28;20060;-41
2024/01/06 14:47:29;;;;;;;9.27;5.47;;;4.30;90.30;;;;;;20762906;28;20052;-40
2024/01/06 14:57:30;;;;;;;9.63;5.80;;;4.40;92.90;;;;;;20760891;28;20103;-40
2024/01/06 15:07:31;;;;;;;9.95;6.30;;;4.40;91.90;;;;;;20757706;28;20542;-40
2024/01/06 15:17:32;;;;;;;11.20;6.82;;;4.40;78.10;;;;;;20765777;28;20041;-40
2024/01/06 15:27:33;;;;;;;10.45;6.20;;;4.40;92.90;;;;;;20765143;28;20042;-40
2024/01/06 15:37:33;;;;;;;9.70;5.63;;;4.40;70.80;;;;;;20761512;28;20077;-40
2024/01/06 15:47:34;;;;;;;7.63;4.88;;;4.30;72.40;;;;;;20756748;28;20052;-41
2024/01/06 15:57:37;;;;;;;8.73;4.50;;;4.40;59.60;;;;;;20700105;28;20460;-40
2024/01/06 16:07:40;;;;;;;8.20;4.43;;;4.40;43.80;;;;;;20752570;28;20137;-40
2024/01/06 16:17:41;;;;;;;7.45;3.90;;;4.40;35.00;;;;;;20753207;28;20606;-40
2024/01/06 16:27:42;;;;;;;6.38;3.50;;;4.40;33.10;;;;;;20759132;28;20093;-40
2024/01/06 16:37:42;;;;;;;6.97;3.60;;;4.40;30.00;;;;;;20769107;28;20049;-40
2024/01/06 16:47:43;;;;;;;8.77;4.30;;;4.50;20.50;;;;;;20773927;28;20045;-40
2024/01/06 16:57:43;;;;;;;6.15;4.07;;;4.40;17.40;;;;;;20771448;28;20808;-40
2024/01/06 17:07:46;;;;;;;6.80;4.07;;;4.40;22.60;;;;;;20774439;28;20045;-40
2024/01/06 17:17:49;;;;;;;6.75;4.15;;;4.40;17.40;;;;;;20754107;28;20069;-40
2024/01/06 17:27:50;;;;;;;7.82;4.20;;;4.30;12.70;;;;;;20766284;28;20505;-40
2024/01/06 17:37:51;;;;;;;9.40;4.47;;;4.30;10.90;;;;;;20767322;28;20045;-40
2024/01/06 17:47:51;;;;;;;10.43;4.80;;;4.30;14.30;;;;;;20766464;28;20042;-40
2024/01/06 17:57:52;;;;;;;7.03;4.10;;;4.40;7.60;;;;;;20764109;28;20813;-40
2024/01/06 18:07:53;;;;;;;8.60;4.38;;;4.30;1.00;;;;;;20765817;28;20467;-40
2024/01/06 18:17:53;;;;;;;7.05;4.03;;;4.30;1.00;;;;;;20771197;28;20045;-40
2024/01/06 18:27:54;;;;;;;7.70;4.20;;;4.30;1.00;;;;;;20762093;28;20045;-41
2024/01/06 18:37:55;;;;;;;6.43;4.50;;;4.30;1.00;;;;;;20734149;28;20077;-40
2024/01/06 18:47:56;;;;;;;8.85;5.45;;;4.10;1.00;;;;;;20765482;28;20042;-41
2024/01/06 18:57:56;;;;;;;12.57;5.70;;;4.10;1.00;;;;;;20760023;28;20662;-40
2024/01/06 19:07:57;;;;;;;7.82;4.57;;;4.00;3.10;;;;;;20755118;28;20041;-40
2024/01/06 19:17:57;;;;;;;7.85;4.57;;;4.00;1.00;;;;;;20756135;28;20042;-40
2024/01/06 19:27:58;;;;;;;6.85;4.10;;;3.90;1.00;;;;;;20756402;28;20537;-41
2024/01/06 19:37:59;;;;;;;8.60;5.35;;;4.00;1.00;;;;;;20750348;28;20133;-40
2024/01/06 19:48:00;;;;;;;9.35;5.90;;;3.90;1.00;;;;;;20755811;28;20083;-40
2024/01/06 19:58:00;;;;;;;10.23;6.00;;;3.90;1.00;;;;;;20759842;28;20026;-40
2024/01/06 20:08:01;;;;;;;9.88;5.85;;;3.80;1.00;;;;;;20759612;28;20598;-40
2024/01/06 20:18:02;;;;;;;11.32;5.95;;;3.70;1.00;;;;;;20769775;28;20152;-40
2024/01/06 20:28:02;;;;;;;11.27;6.30;;;3.70;1.00;;;;;;20767564;28;20042;-40
2024/01/06 20:38:03;;;;;;;11.77;6.38;;;3.60;1.00;;;;;;20768535;28;20061;-40
2024/01/06 20:48:06;;;;;;;12.48;6.60;;;3.50;1.00;;;;;;20764803;28;20478;-40
2024/01/06 20:58:07;;;;;;;11.38;6.65;;;3.40;1.00;;;;;;20770257;28;20042;-40
2024/01/06 21:08:07;;;;;;;13.25;7.32;;;3.40;1.00;;;;;;20751249;28;20042;-40
2024/01/06 21:18:08;;;;;;;11.20;6.33;;;3.20;1.00;;;;;;20753419;28;20493;-44
2024/01/06 21:28:09;;;;;;;12.05;6.97;;;3.10;1.00;;;;;;20767925;28;20840;-40
2024/01/06 21:38:12;;;;;;;13.95;7.82;;;3.10;1.00;;;;;;20766381;28;20564;-39
2024/01/06 21:48:13;;;;;;;12.73;7.28;;;2.90;1.00;;;;;;20763299;28;20091;-40
2024/01/06 21:58:15;;;;;;;13.07;7.85;;;2.90;1.00;;;;;;20765586;28;20540;-40
2024/01/06 22:08:15;;;;;;;13.32;8.25;;;2.90;1.00;;;;;;20763151;28;20474;-40
2024/01/06 22:18:16;;;;;;;14.32;7.78;;;2.80;1.00;;;;;;20764807;28;20037;-40
2024/01/06 22:28:17;;;;;;;13.68;7.68;;;2.70;1.00;;;;;;20763724;28;20513;-40
2024/01/06 22:38:17;;;;;;;12.60;6.80;;;2.80;1.00;;;;;;20768873;28;20038;-40
2024/01/06 22:48:18;;;;;;;14.48;7.75;;;2.70;1.00;;;;;;20766136;28;20451;-40
2024/01/06 22:58:18;;;;;;;13.40;7.47;;;2.60;1.00;;;;;;20762102;28;20034;-40
2024/01/06 23:08:20;;;;;;;13.93;8.15;;;2.50;1.00;;;;;;20767114;28;20065;-40
2024/01/06 23:18:20;;;;;;;13.18;7.72;;;2.60;1.00;;;;;;20766322;28;20127;-39
2024/01/06 23:28:21;;;;;;;12.35;8.05;;;2.60;1.00;;;;;;20766443;28;20033;-40
2024/01/06 23:38:22;;;;;;;13.90;8.38;;;2.50;1.00;;;;;;20763770;28;20141;-40
2024/01/06 23:48:22;;;;;;;13.75;8.23;;;2.40;1.00;;;;;;20766741;28;20504;-41
2024/01/06 23:58:23;;;;;;;12.65;8.00;;;2.40;1.00;;;;;;20768446;28;20034;-40
